sensor_id;sensor_type;location;lat;lon;timestamp;P1;P2;P0
73305;PMS5003;61530;51.158;0.880;2023-09-07T00:00:21;103;99;63
73305;PMS5003;61530;51.158;0.880;2023-09-07T00:01:21;108;99;66
73305;PMS5003;61530;51.158;0.880;2023-09-07T00:02:27;101;96;60
73305;PMS5003;61530;51.158;0.880;2023-09-07T00:03:33;102;99;66
73305;PMS5003;61530;51.158;0.880;2023-09-07T00:04:33;111;101;66
73305;PMS5003;61530;51.158;0.880;2023-09-07T00:05:39;98;90;56
73305;PMS5003;61530;51.158;0.880;2023-09-07T00:06:45;119;105;66
73305;PMS5003;61530;51.158;0.880;2023-09-07T00:07:45;108;104;67
73305;PMS5003;61530;51.158;0.880;2023-09-07T00:08:51;108;104;65
73305;PMS5003;61530;51.158;0.880;2023-09-07T00:09:57;102;98;66
73305;PMS5003;61530;51.158;0.880;2023-09-07T00:11:02;103;97;60
73305;PMS5003;61530;51.158;0.880;2023-09-07T00:12:03;111;99;61
73305;PMS5003;61530;51.158;0.880;2023-09-07T00:13:09;99;93;63
73305;PMS5003;61530;51.158;0.880;2023-09-07T00:14:09;107;100;67
73305;PMS5003;61530;51.158;0.880;2023-09-07T00:15:15;116;113;71
73305;PMS5003;61530;51.158;0.880;2023-09-07T00:16:21;103;99;64
73305;PMS5003;61530;51.158;0.880;2023-09-07T00:17:21;106;100;66
73305;PMS5003;61530;51.158;0.880;2023-09-07T00:18:27;109;102;65
73305;PMS5003;61530;51.158;0.880;2023-09-07T00:19:33;114;103;66
73305;PMS5003;61530;51.158;0.880;2023-09-07T00:20:33;120;113;71
73305;PMS5003;61530;51.158;0.880;2023-09-07T00:21:39;119;113;75
73305;PMS5003;61530;51.158;0.880;2023-09-07T00:22:39;103;98;58
73305;PMS5003;61530;51.158;0.880;2023-09-07T00:23:45;122;110;68
73305;PMS5003;61530;51.158;0.880;2023-09-07T00:24:51;124;109;67
73305;PMS5003;61530;51.158;0.880;2023-09-07T00:25:57;112;105;66
73305;PMS5003;61530;51.158;0.880;2023-09-07T00:26:57;117;108;70
73305;PMS5003;61530;51.158;0.880;2023-09-07T00:28:03;115;105;68
73305;PMS5003;61530;51.158;0.880;2023-09-07T00:29:03;116;107;69
73305;PMS5003;61530;51.158;0.880;2023-09-07T00:30:10;104;95;63
73305;PMS5003;61530;51.158;0.880;2023-09-07T00:31:09;99;94;60
73305;PMS5003;61530;51.158;0.880;2023-09-07T00:32:15;103;98;66
73305;PMS5003;61530;51.158;0.880;2023-09-07T00:33:21;114;106;66
73305;PMS5003;61530;51.158;0.880;2023-09-07T00:34:27;110;97;64
73305;PMS5003;61530;51.158;0.880;2023-09-07T00:35:27;99;95;63
73305;PMS5003;61530;51.158;0.880;2023-09-07T00:36:33;102;97;60
73305;PMS5003;61530;51.158;0.880;2023-09-07T00:37:39;101;96;64
73305;PMS5003;61530;51.158;0.880;2023-09-07T00:38:45;112;105;68
73305;PMS5003;61530;51.158;0.880;2023-09-07T00:39:45;110;107;65
73305;PMS5003;61530;51.158;0.880;2023-09-07T00:40:51;103;95;64
73305;PMS5003;61530;51.158;0.880;2023-09-07T00:41:51;103;98;63
73305;PMS5003;61530;51.158;0.880;2023-09-07T00:42:58;111;106;69
73305;PMS5003;61530;51.158;0.880;2023-09-07T00:44:04;106;99;62
73305;PMS5003;61530;51.158;0.880;2023-09-07T00:45:09;105;102;65
73305;PMS5003;61530;51.158;0.880;2023-09-07T00:46:09;102;97;63
73305;PMS5003;61530;51.158;0.880;2023-09-07T00:47:15;110;105;64
73305;PMS5003;61530;51.158;0.880;2023-09-07T00:48:21;101;92;61
73305;PMS5003;61530;51.158;0.880;2023-09-07T00:49:21;111;103;63
73305;PMS5003;61530;51.158;0.880;2023-09-07T00:50:27;117;109;68
73305;PMS5003;61530;51.158;0.880;2023-09-07T00:51:33;106;99;61
73305;PMS5003;61530;51.158;0.880;2023-09-07T00:52:33;108;98;63
73305;PMS5003;61530;51.158;0.880;2023-09-07T00:53:39;113;100;63
73305;PMS5003;61530;51.158;0.880;2023-09-07T00:54:45;110;98;62
73305;PMS5003;61530;51.158;0.880;2023-09-07T00:55:45;110;105;65
73305;PMS5003;61530;51.158;0.880;2023-09-07T00:56:51;105;98;62
73305;PMS5003;61530;51.158;0.880;2023-09-07T00:57:57;114;107;66
73305;PMS5003;61530;51.158;0.880;2023-09-07T00:58:57;105;101;62
73305;PMS5003;61530;51.158;0.880;2023-09-07T01:00:03;107;100;65
73305;PMS5003;61530;51.158;0.880;2023-09-07T01:01:09;107;98;66
73305;PMS5003;61530;51.158;0.880;2023-09-07T01:02:09;112;102;62
73305;PMS5003;61530;51.158;0.880;2023-09-07T01:03:15;109;101;64
73305;PMS5003;61530;51.158;0.880;2023-09-07T01:04:21;106;99;59
73305;PMS5003;61530;51.158;0.880;2023-09-07T01:05:21;105;95;60
73305;PMS5003;61530;51.158;0.880;2023-09-07T01:06:28;106;105;66
73305;PMS5003;61530;51.158;0.880;2023-09-07T01:07:35;103;96;62
73305;PMS5003;61530;51.158;0.880;2023-09-07T01:08:35;107;100;63
73305;PMS5003;61530;51.158;0.880;2023-09-07T01:09:40;110;97;60
73305;PMS5003;61530;51.158;0.880;2023-09-07T01:10:45;107;104;60
73305;PMS5003;61530;51.158;0.880;2023-09-07T01:11:45;110;96;62
73305;PMS5003;61530;51.158;0.880;2023-09-07T01:12:51;109;98;59
73305;PMS5003;61530;51.158;0.880;2023-09-07T01:13:57;104;92;55
73305;PMS5003;61530;51.158;0.880;2023-09-07T01:14:57;103;100;60
73305;PMS5003;61530;51.158;0.880;2023-09-07T01:16:03;109;100;60
73305;PMS5003;61530;51.158;0.880;2023-09-07T01:17:03;101;97;59
73305;PMS5003;61530;51.158;0.880;2023-09-07T01:18:09;106;99;65
73305;PMS5003;61530;51.158;0.880;2023-09-07T01:19:15;113;99;63
73305;PMS5003;61530;51.158;0.880;2023-09-07T01:20:15;98;96;60
73305;PMS5003;61530;51.158;0.880;2023-09-07T01:21:21;99;92;57
73305;PMS5003;61530;51.158;0.880;2023-09-07T01:22:27;106;94;57
73305;PMS5003;61530;51.158;0.880;2023-09-07T01:23:33;97;91;56
73305;PMS5003;61530;51.158;0.880;2023-09-07T01:24:33;107;95;58
73305;PMS5003;61530;51.158;0.880;2023-09-07T01:25:40;100;92;58
73305;PMS5003;61530;51.158;0.880;2023-09-07T01:26:45;97;86;58
73305;PMS5003;61530;51.158;0.880;2023-09-07T01:27:45;91;84;55
73305;PMS5003;61530;51.158;0.880;2023-09-07T01:28:51;91;86;55
73305;PMS5003;61530;51.158;0.880;2023-09-07T01:29:57;100;92;54
73305;PMS5003;61530;51.158;0.880;2023-09-07T01:30:57;101;95;58
73305;PMS5003;61530;51.158;0.880;2023-09-07T01:32:03;84;79;48
73305;PMS5003;61530;51.158;0.880;2023-09-07T01:33:04;95;87;52
73305;PMS5003;61530;51.158;0.880;2023-09-07T01:34:09;97;90;53
73305;PMS5003;61530;51.158;0.880;2023-09-07T01:35:15;92;86;49
73305;PMS5003;61530;51.158;0.880;2023-09-07T01:36:21;91;85;52
73305;PMS5003;61530;51.158;0.880;2023-09-07T01:37:21;90;85;54
73305;PMS5003;61530;51.158;0.880;2023-09-07T01:38:27;88;82;52
73305;PMS5003;61530;51.158;0.880;2023-09-07T01:39:27;90;83;50
73305;PMS5003;61530;51.158;0.880;2023-09-07T01:40:33;91;82;50
73305;PMS5003;61530;51.158;0.880;2023-09-07T01:41:39;89;81;48
73305;PMS5003;61530;51.158;0.880;2023-09-07T01:42:45;84;76;46
73305;PMS5003;61530;51.158;0.880;2023-09-07T01:43:45;89;81;46
73305;PMS5003;61530;51.158;0.880;2023-09-07T01:44:51;97;84;50
73305;PMS5003;61530;51.158;0.880;2023-09-07T01:45:57;88;77;45
73305;PMS5003;61530;51.158;0.880;2023-09-07T01:46:57;87;78;47
73305;PMS5003;61530;51.158;0.880;2023-09-07T01:48:05;82;78;45
73305;PMS5003;61530;51.158;0.880;2023-09-07T01:49:03;83;74;48
73305;PMS5003;61530;51.158;0.880;2023-09-07T01:50:09;80;69;43
73305;PMS5003;61530;51.158;0.880;2023-09-07T01:51:15;77;74;44
73305;PMS5003;61530;51.158;0.880;2023-09-07T01:52:21;85;72;41
73305;PMS5003;61530;51.158;0.880;2023-09-07T01:53:21;80;74;43
73305;PMS5003;61530;51.158;0.880;2023-09-07T01:54:27;80;72;40
73305;PMS5003;61530;51.158;0.880;2023-09-07T01:55:33;74;64;40
73305;PMS5003;61530;51.158;0.880;2023-09-07T01:56:33;70;64;41
73305;PMS5003;61530;51.158;0.880;2023-09-07T01:57:39;77;70;39
73305;PMS5003;61530;51.158;0.880;2023-09-07T01:58:45;81;73;41
73305;PMS5003;61530;51.158;0.880;2023-09-07T01:59:45;81;71;42
73305;PMS5003;61530;51.158;0.880;2023-09-07T02:00:47;78;69;40
73305;PMS5003;61530;51.158;0.880;2023-09-07T02:01:53;77;67;40
73305;PMS5003;61530;51.158;0.880;2023-09-07T02:02:59;84;76;43
73305;PMS5003;61530;51.158;0.880;2023-09-07T02:04:05;80;70;38
73305;PMS5003;61530;51.158;0.880;2023-09-07T02:05:05;70;64;39
73305;PMS5003;61530;51.158;0.880;2023-09-07T02:06:11;78;60;36
73305;PMS5003;61530;51.158;0.880;2023-09-07T02:07:17;68;62;37
73305;PMS5003;61530;51.158;0.880;2023-09-07T02:08:17;71;62;37
73305;PMS5003;61530;51.158;0.880;2023-09-07T02:09:17;65;59;33
73305;PMS5003;61530;51.158;0.880;2023-09-07T02:10:23;74;67;35
73305;PMS5003;61530;51.158;0.880;2023-09-07T02:11:29;63;61;35
73305;PMS5003;61530;51.158;0.880;2023-09-07T02:12:35;79;69;35
73305;PMS5003;61530;51.158;0.880;2023-09-07T02:13:41;76;63;35
73305;PMS5003;61530;51.158;0.880;2023-09-07T02:14:41;66;61;33
73305;PMS5003;61530;51.158;0.880;2023-09-07T02:15:47;74;67;32
73305;PMS5003;61530;51.158;0.880;2023-09-07T02:16:53;63;58;35
73305;PMS5003;61530;51.158;0.880;2023-09-07T02:17:53;68;57;33
73305;PMS5003;61530;51.158;0.880;2023-09-07T02:19:00;61;52;29
73305;PMS5003;61530;51.158;0.880;2023-09-07T02:19:59;60;54;31
73305;PMS5003;61530;51.158;0.880;2023-09-07T02:21:05;64;56;31
73305;PMS5003;61530;51.158;0.880;2023-09-07T02:22:11;66;59;34
73305;PMS5003;61530;51.158;0.880;2023-09-07T02:23:17;58;54;31
73305;PMS5003;61530;51.158;0.880;2023-09-07T02:24:17;61;53;31
73305;PMS5003;61530;51.158;0.880;2023-09-07T02:25:23;58;55;29
73305;PMS5003;61530;51.158;0.880;2023-09-07T02:26:23;57;51;27
73305;PMS5003;61530;51.158;0.880;2023-09-07T02:27:29;64;56;34
73305;PMS5003;61530;51.158;0.880;2023-09-07T02:28:35;61;56;29
73305;PMS5003;61530;51.158;0.880;2023-09-07T02:29:41;63;57;33
73305;PMS5003;61530;51.158;0.880;2023-09-07T02:30:41;59;55;35
73305;PMS5003;61530;51.158;0.880;2023-09-07T02:31:47;61;57;32
73305;PMS5003;61530;51.158;0.880;2023-09-07T02:32:53;58;54;32
73305;PMS5003;61530;51.158;0.880;2023-09-07T02:33:53;66;59;33
73305;PMS5003;61530;51.158;0.880;2023-09-07T02:34:59;65;60;35
73305;PMS5003;61530;51.158;0.880;2023-09-07T02:36:05;63;54;35
73305;PMS5003;61530;51.158;0.880;2023-09-07T02:37:05;57;53;31
73305;PMS5003;61530;51.158;0.880;2023-09-07T02:38:11;66;52;33
73305;PMS5003;61530;51.158;0.880;2023-09-07T02:39:17;62;52;33
73305;PMS5003;61530;51.158;0.880;2023-09-07T02:40:17;62;58;35
73305;PMS5003;61530;51.158;0.880;2023-09-07T02:41:17;62;53;34
73305;PMS5003;61530;51.158;0.880;2023-09-07T02:42:23;58;50;29
73305;PMS5003;61530;51.158;0.880;2023-09-07T02:43:23;58;54;31
73305;PMS5003;61530;51.158;0.880;2023-09-07T02:44:29;56;56;33
73305;PMS5003;61530;51.158;0.880;2023-09-07T02:45:35;55;50;31
73305;PMS5003;61530;51.158;0.880;2023-09-07T02:46:41;65;57;32
73305;PMS5003;61530;51.158;0.880;2023-09-07T02:47:47;61;48;28
73305;PMS5003;61530;51.158;0.880;2023-09-07T02:48:53;52;47;31
73305;PMS5003;61530;51.158;0.880;2023-09-07T02:49:53;58;51;33
73305;PMS5003;61530;51.158;0.880;2023-09-07T02:50:59;59;53;31
73305;PMS5003;61530;51.158;0.880;2023-09-07T02:52:00;63;53;31
73305;PMS5003;61530;51.158;0.880;2023-09-07T02:53:05;58;57;33
73305;PMS5003;61530;51.158;0.880;2023-09-07T02:54:11;60;51;32
73305;PMS5003;61530;51.158;0.880;2023-09-07T02:55:17;61;57;33
73305;PMS5003;61530;51.158;0.880;2023-09-07T02:56:17;63;54;38
73305;PMS5003;61530;51.158;0.880;2023-09-07T02:57:23;59;53;33
73305;PMS5003;61530;51.158;0.880;2023-09-07T02:58:29;64;60;36
73305;PMS5003;61530;51.158;0.880;2023-09-07T02:59:29;61;56;33
73305;PMS5003;61530;51.158;0.880;2023-09-07T03:00:40;65;59;36
73305;PMS5003;61530;51.158;0.880;2023-09-07T03:01:41;68;60;39
73305;PMS5003;61530;51.158;0.880;2023-09-07T03:02:41;69;62;36
73305;PMS5003;61530;51.158;0.880;2023-09-07T03:03:47;66;56;34
73305;PMS5003;61530;51.158;0.880;2023-09-07T03:04:53;59;57;35
73305;PMS5003;61530;51.158;0.880;2023-09-07T03:05:53;72;61;36
73305;PMS5003;61530;51.158;0.880;2023-09-07T03:07:00;75;64;39
73305;PMS5003;61530;51.158;0.880;2023-09-07T03:08:05;78;68;39
73305;PMS5003;61530;51.158;0.880;2023-09-07T03:09:05;68;63;36
73305;PMS5003;61530;51.158;0.880;2023-09-07T03:10:11;69;64;35
73305;PMS5003;61530;51.158;0.880;2023-09-07T03:11:17;71;66;41
73305;PMS5003;61530;51.158;0.880;2023-09-07T03:12:17;65;60;35
73305;PMS5003;61530;51.158;0.880;2023-09-07T03:13:23;71;66;38
73305;PMS5003;61530;51.158;0.880;2023-09-07T03:14:29;68;63;36
73305;PMS5003;61530;51.158;0.880;2023-09-07T03:15:29;72;61;35
73305;PMS5003;61530;51.158;0.880;2023-09-07T03:16:35;66;57;35
73305;PMS5003;61530;51.158;0.880;2023-09-07T03:17:41;68;60;35
73305;PMS5003;61530;51.158;0.880;2023-09-07T03:18:41;61;60;36
73305;PMS5003;61530;51.158;0.880;2023-09-07T03:19:47;57;54;31
73305;PMS5003;61530;51.158;0.880;2023-09-07T03:20:53;69;58;33
73305;PMS5003;61530;51.158;0.880;2023-09-07T03:21:53;68;58;33
73305;PMS5003;61530;51.158;0.880;2023-09-07T03:22:59;67;60;37
73305;PMS5003;61530;51.158;0.880;2023-09-07T03:23:59;60;53;34
73305;PMS5003;61530;51.158;0.880;2023-09-07T03:25:06;66;61;38
73305;PMS5003;61530;51.158;0.880;2023-09-07T03:26:11;73;62;40
73305;PMS5003;61530;51.158;0.880;2023-09-07T03:27:17;74;70;43
73305;PMS5003;61530;51.158;0.880;2023-09-07T03:28:17;72;70;43
73305;PMS5003;61530;51.158;0.880;2023-09-07T03:29:23;75;68;40
73305;PMS5003;61530;51.158;0.880;2023-09-07T03:30:29;74;64;40
73305;PMS5003;61530;51.158;0.880;2023-09-07T03:31:29;71;67;42
73305;PMS5003;61530;51.158;0.880;2023-09-07T03:32:35;76;64;42
73305;PMS5003;61530;51.158;0.880;2023-09-07T03:33:41;73;67;44
73305;PMS5003;61530;51.158;0.880;2023-09-07T03:34:41;80;76;48
73305;PMS5003;61530;51.158;0.880;2023-09-07T03:35:47;78;71;44
73305;PMS5003;61530;51.158;0.880;2023-09-07T03:36:47;74;69;43
73305;PMS5003;61530;51.158;0.880;2023-09-07T03:37:53;79;67;46
73305;PMS5003;61530;51.158;0.880;2023-09-07T03:38:53;73;64;40
73305;PMS5003;61530;51.158;0.880;2023-09-07T03:39:59;76;72;43
73305;PMS5003;61530;51.158;0.880;2023-09-07T03:41:05;72;71;46
73305;PMS5003;61530;51.158;0.880;2023-09-07T03:42:11;76;70;42
73305;PMS5003;61530;51.158;0.880;2023-09-07T03:43:11;80;76;48
73305;PMS5003;61530;51.158;0.880;2023-09-07T03:44:17;80;70;43
73305;PMS5003;61530;51.158;0.880;2023-09-07T03:45:23;74;69;41
73305;PMS5003;61530;51.158;0.880;2023-09-07T03:46:29;73;66;40
73305;PMS5003;61530;51.158;0.880;2023-09-07T03:47:29;78;70;43
73305;PMS5003;61530;51.158;0.880;2023-09-07T03:48:35;67;63;35
73305;PMS5003;61530;51.158;0.880;2023-09-07T03:49:35;67;65;39
73305;PMS5003;61530;51.158;0.880;2023-09-07T03:50:41;70;62;38
73305;PMS5003;61530;51.158;0.880;2023-09-07T03:51:47;71;62;36
73305;PMS5003;61530;51.158;0.880;2023-09-07T03:52:53;67;62;35
73305;PMS5003;61530;51.158;0.880;2023-09-07T03:53:53;66;59;33
73305;PMS5003;61530;51.158;0.880;2023-09-07T03:54:59;60;54;33
73305;PMS5003;61530;51.158;0.880;2023-09-07T03:56:01;65;57;32
73305;PMS5003;61530;51.158;0.880;2023-09-07T03:57:05;70;63;34
73305;PMS5003;61530;51.158;0.880;2023-09-07T03:58:11;63;58;32
73305;PMS5003;61530;51.158;0.880;2023-09-07T03:59:17;67;56;31
73305;PMS5003;61530;51.158;0.880;2023-09-07T04:00:17;67;53;30
73305;PMS5003;61530;51.158;0.880;2023-09-07T04:01:23;66;58;33
73305;PMS5003;61530;51.158;0.880;2023-09-07T04:02:29;66;58;34
73305;PMS5003;61530;51.158;0.880;2023-09-07T04:03:29;61;52;30
73305;PMS5003;61530;51.158;0.880;2023-09-07T04:04:35;61;55;32
73305;PMS5003;61530;51.158;0.880;2023-09-07T04:05:41;65;50;28
73305;PMS5003;61530;51.158;0.880;2023-09-07T04:06:41;62;55;30
73305;PMS5003;61530;51.158;0.880;2023-09-07T04:07:47;63;59;34
73305;PMS5003;61530;51.158;0.880;2023-09-07T04:08:53;59;52;31
73305;PMS5003;61530;51.158;0.880;2023-09-07T04:09:53;64;58;33
73305;PMS5003;61530;51.158;0.880;2023-09-07T04:11:03;66;58;32
73305;PMS5003;61530;51.158;0.880;2023-09-07T04:12:05;69;63;34
73305;PMS5003;61530;51.158;0.880;2023-09-07T04:13:05;71;60;33
73305;PMS5003;61530;51.158;0.880;2023-09-07T04:14:11;60;54;32
73305;PMS5003;61530;51.158;0.880;2023-09-07T04:15:17;54;51;32
73305;PMS5003;61530;51.158;0.880;2023-09-07T04:16:17;59;58;32
73305;PMS5003;61530;51.158;0.880;2023-09-07T04:17:23;64;52;31
73305;PMS5003;61530;51.158;0.880;2023-09-07T04:18:29;60;56;32
73305;PMS5003;61530;51.158;0.880;2023-09-07T04:19:29;67;59;33
73305;PMS5003;61530;51.158;0.880;2023-09-07T04:20:35;62;53;32
73305;PMS5003;61530;51.158;0.880;2023-09-07T04:21:41;65;59;35
73305;PMS5003;61530;51.158;0.880;2023-09-07T04:22:41;65;56;32
73305;PMS5003;61530;51.158;0.880;2023-09-07T04:23:41;72;60;32
73305;PMS5003;61530;51.158;0.880;2023-09-07T04:24:47;61;54;30
73305;PMS5003;61530;51.158;0.880;2023-09-07T04:26:02;65;60;32
73305;PMS5003;61530;51.158;0.880;2023-09-07T04:26:59;64;58;32
73305;PMS5003;61530;51.158;0.880;2023-09-07T04:28:05;63;58;33
73305;PMS5003;61530;51.158;0.880;2023-09-07T04:29:06;58;51;30
73305;PMS5003;61530;51.158;0.880;2023-09-07T04:30:11;52;49;29
73305;PMS5003;61530;51.158;0.880;2023-09-07T04:31:17;63;54;32
73305;PMS5003;61530;51.158;0.880;2023-09-07T04:32:17;58;54;31
73305;PMS5003;61530;51.158;0.880;2023-09-07T04:33:23;61;52;30
73305;PMS5003;61530;51.158;0.880;2023-09-07T04:34:29;62;53;32
73305;PMS5003;61530;51.158;0.880;2023-09-07T04:35:29;59;54;29
73305;PMS5003;61530;51.158;0.880;2023-09-07T04:36:35;64;55;32
73305;PMS5003;61530;51.158;0.880;2023-09-07T04:37:41;56;52;32
73305;PMS5003;61530;51.158;0.880;2023-09-07T04:38:41;66;59;32
73305;PMS5003;61530;51.158;0.880;2023-09-07T04:39:49;58;50;31
73305;PMS5003;61530;51.158;0.880;2023-09-07T04:40:47;73;60;33
73305;PMS5003;61530;51.158;0.880;2023-09-07T04:41:53;53;48;33
73305;PMS5003;61530;51.158;0.880;2023-09-07T04:42:59;60;56;31
73305;PMS5003;61530;51.158;0.880;2023-09-07T04:44:05;68;58;31
73305;PMS5003;61530;51.158;0.880;2023-09-07T04:45:06;65;56;31
73305;PMS5003;61530;51.158;0.880;2023-09-07T04:46:12;61;58;33
73305;PMS5003;61530;51.158;0.880;2023-09-07T04:47:17;63;51;28
73305;PMS5003;61530;51.158;0.880;2023-09-07T04:48:17;63;60;33
73305;PMS5003;61530;51.158;0.880;2023-09-07T04:49:23;47;44;28
73305;PMS5003;61530;51.158;0.880;2023-09-07T04:50:29;65;55;32
73305;PMS5003;61530;51.158;0.880;2023-09-07T04:51:29;57;52;29
73305;PMS5003;61530;51.158;0.880;2023-09-07T04:52:35;62;58;33
73305;PMS5003;61530;51.158;0.880;2023-09-07T04:53:41;65;56;30
73305;PMS5003;61530;51.158;0.880;2023-09-07T04:54:41;64;57;32
73305;PMS5003;61530;51.158;0.880;2023-09-07T04:55:47;63;60;33
73305;PMS5003;61530;51.158;0.880;2023-09-07T04:56:53;68;60;35
73305;PMS5003;61530;51.158;0.880;2023-09-07T04:57:53;63;58;33
73305;PMS5003;61530;51.158;0.880;2023-09-07T04:58:59;61;58;35
73305;PMS5003;61530;51.158;0.880;2023-09-07T04:59:59;73;65;35
73305;PMS5003;61530;51.158;0.880;2023-09-07T05:01:06;68;61;34
73305;PMS5003;61530;51.158;0.880;2023-09-07T05:02:11;66;57;31
73305;PMS5003;61530;51.158;0.880;2023-09-07T05:03:17;66;60;32
73305;PMS5003;61530;51.158;0.880;2023-09-07T05:04:17;57;52;33
73305;PMS5003;61530;51.158;0.880;2023-09-07T05:05:23;60;55;28
73305;PMS5003;61530;51.158;0.880;2023-09-07T05:06:23;63;54;30
73305;PMS5003;61530;51.158;0.880;2023-09-07T05:07:29;64;56;27
73305;PMS5003;61530;51.158;0.880;2023-09-07T05:08:35;67;56;32
73305;PMS5003;61530;51.158;0.880;2023-09-07T05:09:41;65;56;31
73305;PMS5003;61530;51.158;0.880;2023-09-07T05:10:41;73;57;34
73305;PMS5003;61530;51.158;0.880;2023-09-07T05:11:47;67;56;30
73305;PMS5003;61530;51.158;0.880;2023-09-07T05:12:53;66;57;32
73305;PMS5003;61530;51.158;0.880;2023-09-07T05:13:53;60;52;30
73305;PMS5003;61530;51.158;0.880;2023-09-07T05:14:53;56;56;31
73305;PMS5003;61530;51.158;0.880;2023-09-07T05:15:59;68;59;33
73305;PMS5003;61530;51.158;0.880;2023-09-07T05:17:05;59;57;33
73305;PMS5003;61530;51.158;0.880;2023-09-07T05:18:11;72;62;32
73305;PMS5003;61530;51.158;0.880;2023-09-07T05:19:17;63;60;36
73305;PMS5003;61530;51.158;0.880;2023-09-07T05:20:17;68;61;35
73305;PMS5003;61530;51.158;0.880;2023-09-07T05:21:23;71;63;34
73305;PMS5003;61530;51.158;0.880;2023-09-07T05:22:29;68;62;37
73305;PMS5003;61530;51.158;0.880;2023-09-07T05:23:29;65;55;31
73305;PMS5003;61530;51.158;0.880;2023-09-07T05:24:37;64;56;29
73305;PMS5003;61530;51.158;0.880;2023-09-07T05:25:44;70;63;34
73305;PMS5003;61530;51.158;0.880;2023-09-07T05:26:41;68;59;32
73305;PMS5003;61530;51.158;0.880;2023-09-07T05:27:48;65;59;33
73305;PMS5003;61530;51.158;0.880;2023-09-07T05:28:53;64;61;31
73305;PMS5003;61530;51.158;0.880;2023-09-07T05:29:53;72;62;35
73305;PMS5003;61530;51.158;0.880;2023-09-07T05:30:59;70;59;30
73305;PMS5003;61530;51.158;0.880;2023-09-07T05:31:59;71;61;29
73305;PMS5003;61530;51.158;0.880;2023-09-07T05:33:05;67;54;29
73305;PMS5003;61530;51.158;0.880;2023-09-07T05:34:11;60;51;28
73305;PMS5003;61530;51.158;0.880;2023-09-07T05:35:17;65;55;32
73305;PMS5003;61530;51.158;0.880;2023-09-07T05:36:17;74;56;32
73305;PMS5003;61530;51.158;0.880;2023-09-07T05:37:23;64;60;31
73305;PMS5003;61530;51.158;0.880;2023-09-07T05:38:29;64;53;29
73305;PMS5003;61530;51.158;0.880;2023-09-07T05:39:29;62;56;32
73305;PMS5003;61530;51.158;0.880;2023-09-07T05:40:29;66;60;34
73305;PMS5003;61530;51.158;0.880;2023-09-07T05:41:35;64;53;30
73305;PMS5003;61530;51.158;0.880;2023-09-07T05:42:41;60;51;29
73305;PMS5003;61530;51.158;0.880;2023-09-07T05:43:47;67;56;30
73305;PMS5003;61530;51.158;0.880;2023-09-07T05:44:53;73;55;31
73305;PMS5003;61530;51.158;0.880;2023-09-07T05:45:53;58;55;29
73305;PMS5003;61530;51.158;0.880;2023-09-07T05:46:59;60;51;29
73305;PMS5003;61530;51.158;0.880;2023-09-07T05:48:05;59;52;30
73305;PMS5003;61530;51.158;0.880;2023-09-07T05:49:05;63;52;29
73305;PMS5003;61530;51.158;0.880;2023-09-07T05:50:11;67;59;29
73305;PMS5003;61530;51.158;0.880;2023-09-07T05:51:11;65;55;32
73305;PMS5003;61530;51.158;0.880;2023-09-07T05:52:17;59;51;31
73305;PMS5003;61530;51.158;0.880;2023-09-07T05:53:23;62;55;30
73305;PMS5003;61530;51.158;0.880;2023-09-07T05:54:29;74;65;35
73305;PMS5003;61530;51.158;0.880;2023-09-07T05:55:29;64;57;35
73305;PMS5003;61530;51.158;0.880;2023-09-07T05:56:35;66;56;35
73305;PMS5003;61530;51.158;0.880;2023-09-07T05:57:35;67;59;32
73305;PMS5003;61530;51.158;0.880;2023-09-07T05:58:41;70;62;35
73305;PMS5003;61530;51.158;0.880;2023-09-07T05:59:47;70;58;34
73305;PMS5003;61530;51.158;0.880;2023-09-07T06:00:53;72;60;36
73305;PMS5003;61530;51.158;0.880;2023-09-07T06:01:53;65;55;33
73305;PMS5003;61530;51.158;0.880;2023-09-07T06:02:59;70;56;29
73305;PMS5003;61530;51.158;0.880;2023-09-07T06:03:59;73;60;31
73305;PMS5003;61530;51.158;0.880;2023-09-07T06:05:06;69;54;30
73305;PMS5003;61530;51.158;0.880;2023-09-07T06:06:11;72;65;35
73305;PMS5003;61530;51.158;0.880;2023-09-07T06:07:17;64;53;30
73305;PMS5003;61530;51.158;0.880;2023-09-07T06:08:17;68;57;31
73305;PMS5003;61530;51.158;0.880;2023-09-07T06:09:23;72;64;33
73305;PMS5003;61530;51.158;0.880;2023-09-07T06:10:23;59;55;33
73305;PMS5003;61530;51.158;0.880;2023-09-07T06:11:29;72;57;34
73305;PMS5003;61530;51.158;0.880;2023-09-07T06:12:35;70;63;34
73305;PMS5003;61530;51.158;0.880;2023-09-07T06:13:41;71;56;32
73305;PMS5003;61530;51.158;0.880;2023-09-07T06:14:41;68;60;33
73305;PMS5003;61530;51.158;0.880;2023-09-07T06:15:47;63;55;34
73305;PMS5003;61530;51.158;0.880;2023-09-07T06:16:53;73;61;34
73305;PMS5003;61530;51.158;0.880;2023-09-07T06:17:53;71;63;33
73305;PMS5003;61530;51.158;0.880;2023-09-07T06:18:59;67;57;36
73305;PMS5003;61530;51.158;0.880;2023-09-07T06:20:05;78;63;35
73305;PMS5003;61530;51.158;0.880;2023-09-07T06:21:05;64;58;35
73305;PMS5003;61530;51.158;0.880;2023-09-07T06:22:11;62;59;36
73305;PMS5003;61530;51.158;0.880;2023-09-07T06:23:11;74;60;36
73305;PMS5003;61530;51.158;0.880;2023-09-07T06:24:17;76;66;39
73305;PMS5003;61530;51.158;0.880;2023-09-07T06:25:17;75;65;39
73305;PMS5003;61530;51.158;0.880;2023-09-07T06:26:23;72;66;36
73305;PMS5003;61530;51.158;0.880;2023-09-07T06:27:29;79;70;41
73305;PMS5003;61530;51.158;0.880;2023-09-07T06:28:35;83;70;39
73305;PMS5003;61530;51.158;0.880;2023-09-07T06:29:41;83;71;40
73305;PMS5003;61530;51.158;0.880;2023-09-07T06:30:41;88;74;42
73305;PMS5003;61530;51.158;0.880;2023-09-07T06:31:47;71;64;39
73305;PMS5003;61530;51.158;0.880;2023-09-07T06:32:53;72;64;39
73305;PMS5003;61530;51.158;0.880;2023-09-07T06:33:53;73;68;38
73305;PMS5003;61530;51.158;0.880;2023-09-07T06:34:59;89;73;42
73305;PMS5003;61530;51.158;0.880;2023-09-07T06:36:05;75;66;40
73305;PMS5003;61530;51.158;0.880;2023-09-07T06:37:05;76;66;36
73305;PMS5003;61530;51.158;0.880;2023-09-07T06:38:11;86;69;39
73305;PMS5003;61530;51.158;0.880;2023-09-07T06:39:18;71;62;37
73305;PMS5003;61530;51.158;0.880;2023-09-07T06:40:23;86;73;42
73305;PMS5003;61530;51.158;0.880;2023-09-07T06:41:23;73;65;37
73305;PMS5003;61530;51.158;0.880;2023-09-07T06:42:23;91;75;43
73305;PMS5003;61530;51.158;0.880;2023-09-07T06:43:29;86;70;40
73305;PMS5003;61530;51.158;0.880;2023-09-07T06:44:35;75;66;42
73305;PMS5003;61530;51.158;0.880;2023-09-07T06:45:41;83;75;46
73305;PMS5003;61530;51.158;0.880;2023-09-07T06:46:41;81;70;39
73305;PMS5003;61530;51.158;0.880;2023-09-07T06:47:48;83;72;45
73305;PMS5003;61530;51.158;0.880;2023-09-07T06:48:53;79;73;41